createdAt,value
2022-09-17T00:00:56.020Z,94.60
2022-09-17T00:02:58.971Z,93.76
2022-09-17T00:05:03.374Z,94.54
2022-09-17T00:07:06.751Z,93.82
2022-09-17T00:09:10.300Z,94.29
2022-09-17T00:11:14.872Z,94.03
2022-09-17T00:13:17.823Z,95.34
2022-09-17T00:15:20.769Z,94.01
2022-09-17T00:17:23.774Z,93.89
2022-09-17T00:19:26.737Z,93.39
2022-09-17T00:21:31.719Z,92.74
2022-09-17T00:23:34.722Z,92.78
2022-09-17T00:25:39.245Z,95.50
2022-09-17T00:27:42.240Z,94.84
2022-09-17T00:29:45.662Z,95.53
2022-09-17T00:31:48.807Z,94.69
2022-09-17T00:33:52.519Z,93.74
2022-09-17T00:35:59.414Z,94.31
2022-09-17T00:38:03.748Z,95.23
2022-09-17T00:40:07.887Z,96.71
2022-09-17T00:42:11.157Z,96.48
2022-09-17T00:44:43.014Z,95.73
2022-09-17T00:46:46.369Z,97.10
2022-09-17T00:48:49.492Z,95.84
2022-09-17T00:50:53.698Z,95.37
2022-09-17T00:53:00.603Z,95.18
2022-09-17T00:55:10.627Z,94.68
2022-09-17T00:57:13.644Z,94.36
2022-09-17T00:59:16.744Z,95.10
2022-09-17T01:01:20.106Z,94.54
2022-09-17T01:03:23.160Z,94.56
2022-09-17T01:05:32.098Z,95.35
2022-09-17T01:08:00.133Z,96.55
2022-09-17T01:10:21.153Z,96.71
2022-09-17T01:12:41.262Z,95.81
2022-09-17T01:14:52.059Z,95.53
2022-09-17T01:17:00.528Z,95.65
2022-09-17T01:19:14.149Z,95.20
2022-09-17T01:21:46.962Z,95.95
2022-09-17T01:24:07.602Z,96.35
2022-09-17T01:26:30.528Z,95.16
2022-09-17T01:28:43.478Z,95.37
2022-09-17T01:31:06.292Z,96.14
2022-09-17T01:33:13.470Z,95.45
2022-09-17T01:35:21.096Z,94.88
2022-09-17T01:37:30.719Z,96.02
2022-09-17T01:39:43.296Z,94.91
2022-09-17T01:41:52.931Z,94.15
2022-09-17T01:44:00.114Z,94.42
2022-09-17T01:46:11.279Z,95.14
2022-09-17T01:48:18.064Z,94.97
2022-09-17T01:50:25.547Z,93.99
2022-09-17T01:52:28.958Z,94.92
2022-09-17T01:54:38.074Z,94.93
2022-09-17T01:56:46.052Z,94.57
2022-09-17T01:58:53.589Z,95.10
2022-09-17T02:00:59.914Z,95.44
2022-09-17T02:03:08.222Z,95.38
2022-09-17T02:05:16.229Z,95.23
2022-09-17T02:07:21.218Z,94.79
2022-09-17T02:09:26.678Z,94.59
2022-09-17T02:11:29.805Z,95.86
2022-09-17T02:13:34.539Z,94.89
2022-09-17T02:15:40.797Z,96.21
2022-09-17T02:17:47.627Z,94.50
2022-09-17T02:19:53.727Z,95.33
2022-09-17T02:22:02.094Z,96.02
2022-09-17T02:24:09.836Z,94.89
2022-09-17T02:26:15.414Z,95.50
2022-09-17T02:28:23.425Z,94.55
2022-09-17T02:30:26.525Z,94.99
2022-09-17T02:32:29.518Z,94.45
2022-09-17T02:34:32.909Z,95.88
2022-09-17T02:36:37.297Z,95.63
2022-09-17T02:38:42.867Z,95.07
2022-09-17T02:40:48.765Z,94.40
2022-09-17T02:43:01.435Z,94.43
2022-09-17T02:45:08.236Z,94.68
2022-09-17T02:47:38.805Z,94.45
2022-09-17T02:49:54.442Z,96.40
2022-09-17T02:52:05.523Z,94.80
2022-09-17T02:54:15.735Z,94.95
2022-09-17T02:56:25.571Z,94.88
2022-09-17T02:58:32.500Z,95.80
2022-09-17T03:00:35.982Z,95.50
2022-09-17T03:02:43.331Z,96.01
2022-09-17T03:04:48.339Z,95.18
2022-09-17T03:06:53.181Z,95.79
2022-09-17T03:08:58.044Z,95.53
2022-09-17T03:11:01.179Z,95.39
2022-09-17T03:13:04.175Z,95.65
2022-09-17T03:15:08.048Z,94.95
2022-09-17T03:17:11.173Z,95.67
2022-09-17T03:19:14.092Z,94.04
2022-09-17T03:21:17.086Z,95.38
2022-09-17T03:23:20.027Z,95.11
2022-09-17T03:25:24.315Z,95.11
2022-09-17T03:27:27.270Z,94.64
2022-09-17T03:29:30.263Z,94.63
2022-09-17T03:31:33.304Z,95.46
2022-09-17T03:33:36.280Z,95.86
2022-09-17T03:35:39.275Z,95.81
2022-09-17T03:37:43.061Z,95.03
2022-09-17T03:39:46.076Z,95.42
2022-09-17T03:41:50.727Z,95.26
2022-09-17T03:43:54.027Z,95.17
2022-09-17T03:45:57.270Z,94.96
2022-09-17T03:48:00.210Z,95.36
2022-09-17T03:50:03.215Z,94.67
2022-09-17T03:52:06.298Z,94.28
2022-09-17T03:54:09.491Z,94.47
2022-09-17T03:56:12.505Z,94.15
2022-09-17T03:58:17.259Z,94.28
2022-09-17T04:00:20.400Z,93.16
2022-09-17T04:02:23.627Z,93.23
2022-09-17T04:04:26.683Z,94.55
2022-09-17T04:06:29.700Z,92.99
2022-09-17T04:08:32.623Z,92.99
2022-09-17T04:10:35.701Z,94.01
2022-09-17T04:12:38.701Z,93.24
2022-09-17T04:14:43.033Z,94.37
2022-09-17T04:16:46.257Z,94.11
2022-09-17T04:18:49.201Z,93.99
2022-09-17T04:20:52.144Z,94.23
2022-09-17T04:22:55.099Z,93.83
2022-09-17T04:24:58.059Z,93.37
2022-09-17T04:27:01.045Z,93.56
2022-09-17T04:29:04.042Z,93.54
2022-09-17T04:31:08.741Z,92.90
2022-09-17T04:33:11.696Z,93.21
2022-09-17T04:35:14.688Z,94.24
2022-09-17T04:37:17.645Z,94.18
2022-09-17T04:39:20.600Z,92.37
2022-09-17T04:41:23.576Z,94.01
2022-09-17T04:43:26.605Z,93.06
2022-09-17T04:45:30.511Z,92.68
2022-09-17T04:47:34.837Z,92.60
2022-09-17T04:49:37.790Z,93.54
2022-09-17T04:51:40.810Z,92.73
2022-09-17T04:53:43.826Z,92.00
2022-09-17T04:55:46.738Z,93.53
2022-09-17T04:57:50.587Z,92.81
2022-09-17T04:59:53.809Z,93.76
2022-09-17T05:01:56.782Z,92.85
2022-09-17T05:04:01.295Z,92.17
2022-09-17T05:06:04.280Z,91.94
2022-09-17T05:08:08.287Z,93.07
2022-09-17T05:10:12.752Z,91.84
2022-09-17T05:12:15.827Z,93.24
2022-09-17T05:14:18.857Z,92.74
2022-09-17T05:16:22.122Z,93.18
2022-09-17T05:18:25.958Z,94.10
2022-09-17T05:20:30.257Z,94.04
2022-09-17T05:22:33.170Z,94.04
2022-09-17T05:24:39.258Z,92.13
2022-09-17T05:26:42.156Z,93.77
2022-09-17T05:28:45.151Z,92.44
2022-09-17T05:30:48.088Z,93.13
2022-09-17T05:32:59.815Z,93.63
2022-09-17T05:35:05.634Z,92.60
2022-09-17T05:37:12.029Z,92.47
2022-09-17T05:39:15.044Z,91.93
2022-09-17T05:41:17.974Z,92.27
2022-09-17T05:43:23.926Z,93.17
2022-09-17T05:45:27.157Z,93.84
2022-09-17T05:47:30.224Z,92.28
2022-09-17T05:49:33.150Z,93.31
2022-09-17T05:51:36.130Z,93.30
2022-09-17T05:53:40.474Z,92.85
2022-09-17T05:55:43.379Z,92.66
2022-09-17T05:57:46.356Z,94.03
2022-09-17T05:59:49.339Z,93.80
2022-09-17T06:01:52.370Z,92.71
2022-09-17T06:03:55.499Z,93.62
2022-09-17T06:06:00.101Z,92.97
2022-09-17T06:08:03.651Z,93.21
2022-09-17T06:10:09.481Z,92.48
2022-09-17T06:12:12.424Z,92.84
2022-09-17T06:14:15.542Z,92.77
2022-09-17T06:16:18.588Z,92.35
2022-09-17T06:18:21.805Z,93.60
2022-09-17T06:20:24.922Z,91.79
2022-09-17T06:22:27.889Z,92.39
2022-09-17T06:24:30.866Z,91.93
2022-09-17T06:26:35.175Z,93.28
2022-09-17T06:28:41.653Z,93.06
2022-09-17T06:30:44.929Z,92.87
2022-09-17T06:32:47.922Z,92.19
2022-09-17T06:34:50.887Z,91.59
2022-09-17T06:36:54.059Z,92.68
2022-09-17T06:38:57.211Z,92.53
2022-09-17T06:41:00.371Z,92.84
2022-09-17T06:43:05.117Z,90.84
2022-09-17T06:45:13.253Z,92.60
2022-09-17T06:47:19.122Z,91.03
2022-09-17T06:49:22.335Z,92.42
2022-09-17T06:51:25.350Z,91.89
2022-09-17T06:53:29.431Z,91.73
2022-09-17T06:55:32.389Z,92.91
2022-09-17T06:57:35.326Z,92.09
2022-09-17T06:59:39.736Z,91.39
2022-09-17T07:01:43.554Z,92.25
2022-09-17T07:03:46.548Z,91.74
2022-09-17T07:05:49.540Z,93.02
2022-09-17T07:07:52.887Z,92.93
2022-09-17T07:09:56.153Z,92.49
2022-09-17T07:11:59.093Z,94.27
2022-09-17T07:14:02.148Z,94.13
2022-09-17T07:16:08.376Z,94.78
2022-09-17T07:18:12.129Z,93.89
2022-09-17T07:20:15.719Z,93.60
2022-09-17T07:22:19.153Z,95.01
2022-09-17T07:24:22.213Z,96.14
2022-09-17T07:26:25.197Z,95.97
2022-09-17T07:28:29.128Z,96.16
2022-09-17T07:30:32.101Z,96.82
2022-09-17T07:32:36.471Z,95.29
2022-09-17T07:34:40.025Z,95.92
2022-09-17T07:36:44.232Z,97.15
2022-09-17T07:38:47.909Z,96.53
2022-09-17T07:40:58.429Z,95.79
2022-09-17T07:43:01.523Z,96.72
2022-09-17T07:45:04.986Z,96.93
2022-09-17T07:47:08.205Z,96.18
2022-09-17T07:49:12.619Z,97.33
2022-09-17T07:51:17.013Z,96.16
2022-09-17T07:53:20.254Z,96.76
2022-09-17T07:55:23.871Z,96.38
2022-09-17T07:57:26.831Z,96.21
2022-09-17T07:59:29.814Z,96.47
2022-09-17T08:01:34.144Z,95.93
2022-09-17T08:03:37.710Z,95.59
2022-09-17T08:05:42.107Z,94.94
2022-09-17T08:07:45.102Z,95.32
2022-09-17T08:09:48.092Z,95.85
2022-09-17T08:11:56.191Z,96.48
2022-09-17T08:13:59.991Z,96.85
2022-09-17T08:16:05.339Z,96.74
2022-09-17T08:18:08.594Z,95.36
2022-09-17T08:20:11.634Z,95.82
2022-09-17T08:22:16.066Z,97.37
2022-09-17T08:24:19.038Z,97.18
2022-09-17T08:26:23.553Z,95.69
2022-09-17T08:28:27.968Z,95.41
2022-09-17T08:30:31.824Z,95.85
2022-09-17T08:32:34.836Z,96.15
2022-09-17T08:34:38.040Z,95.42
2022-09-17T08:36:41.040Z,95.96
2022-09-17T08:38:45.722Z,96.00
2022-09-17T08:40:59.555Z,97.14
2022-09-17T08:43:03.473Z,95.60
2022-09-17T08:45:10.418Z,95.45
2022-09-17T08:47:18.444Z,96.11
2022-09-17T08:49:30.145Z,97.96
2022-09-17T08:51:40.002Z,97.27
2022-09-17T08:53:52.289Z,95.66
2022-09-17T08:56:01.235Z,95.97
2022-09-17T08:58:28.194Z,96.09
2022-09-17T09:00:33.940Z,95.48
2022-09-17T09:03:11.426Z,96.37
2022-09-17T09:05:16.580Z,95.40
2022-09-17T09:07:21.950Z,95.28
2022-09-17T09:09:31.172Z,95.84
2022-09-17T09:11:34.370Z,96.07
2022-09-17T09:13:40.366Z,95.60
2022-09-17T09:15:46.109Z,95.15
2022-09-17T09:17:50.988Z,95.79
2022-09-17T09:19:54.476Z,95.55
2022-09-17T09:22:03.566Z,94.83
2022-09-17T09:24:10.820Z,94.44
2022-09-17T09:26:18.437Z,93.53
2022-09-17T09:28:33.876Z,93.68
2022-09-17T09:30:44.523Z,93.65
2022-09-17T09:32:56.888Z,93.18
2022-09-17T09:35:01.601Z,92.44
2022-09-17T09:37:13.623Z,91.57
2022-09-17T09:39:20.244Z,91.53
2022-09-17T09:41:28.436Z,91.44
2022-09-17T09:44:02.206Z,91.06
2022-09-17T09:46:14.196Z,91.26
2022-09-17T09:48:22.035Z,91.30
2022-09-17T09:51:01.705Z,91.33
2022-09-17T09:53:05.796Z,92.23
2022-09-17T09:55:26.356Z,90.07
2022-09-17T09:57:39.726Z,90.29
2022-09-17T09:59:42.718Z,91.33
2022-09-17T10:01:46.410Z,92.07
2022-09-17T10:03:51.932Z,92.47
2022-09-17T10:05:59.303Z,93.40
2022-09-17T10:08:12.662Z,92.95
2022-09-17T10:10:15.666Z,91.89
2022-09-17T10:12:19.565Z,91.06
2022-09-17T10:14:25.551Z,89.87
2022-09-17T10:16:30.454Z,91.92
2022-09-17T10:18:33.561Z,90.93
2022-09-17T10:20:36.902Z,90.08
2022-09-17T10:22:41.109Z,88.70
2022-09-17T10:24:44.423Z,89.11
2022-09-17T10:26:47.469Z,89.42
2022-09-17T10:28:51.948Z,86.44
2022-09-17T10:31:04.092Z,85.01
2022-09-17T10:33:21.636Z,85.19
2022-09-17T10:35:28.573Z,83.91
2022-09-17T10:37:35.765Z,85.21
2022-09-17T10:39:44.402Z,84.69
2022-09-17T10:41:55.358Z,82.76
2022-09-17T10:43:58.508Z,83.42
2022-09-17T10:46:04.254Z,83.62
2022-09-17T10:48:16.131Z,82.55
2022-09-17T10:50:21.033Z,82.92
2022-09-17T10:52:26.501Z,85.66
2022-09-17T10:54:54.171Z,86.50
2022-09-17T10:56:59.993Z,87.89
2022-09-17T10:59:13.099Z,89.09
2022-09-17T11:01:29.674Z,89.81
2022-09-17T11:04:08.864Z,90.91
2022-09-17T11:06:31.614Z,92.88
2022-09-17T11:08:38.609Z,92.34
2022-09-17T11:10:48.652Z,90.55
2022-09-17T11:13:09.492Z,90.57
2022-09-17T11:15:25.874Z,89.99
2022-09-17T11:17:50.072Z,92.46
2022-09-17T11:20:00.766Z,93.35
2022-09-17T11:22:08.288Z,91.87
2022-09-17T11:24:48.832Z,90.36
2022-09-17T11:26:57.283Z,93.76
2022-09-17T11:29:09.160Z,92.27
2022-09-17T11:31:24.480Z,92.89
2022-09-17T11:33:46.341Z,93.17
2022-09-17T11:35:51.242Z,93.04
2022-09-17T11:38:00.073Z,94.50
2022-09-17T11:40:07.442Z,93.05
2022-09-17T11:42:15.670Z,93.02
2022-09-17T11:44:24.127Z,92.92
2022-09-17T11:46:31.953Z,93.04
2022-09-17T11:48:40.432Z,93.59
2022-09-17T11:50:46.581Z,93.97
2022-09-17T11:53:02.139Z,94.10
2022-09-17T11:55:11.002Z,93.45
2022-09-17T11:57:16.501Z,92.69
2022-09-17T11:59:22.165Z,93.62
2022-09-17T12:01:28.823Z,93.51
2022-09-17T12:03:34.814Z,93.78
2022-09-17T12:05:42.895Z,93.57
2022-09-17T12:07:51.448Z,94.22
2022-09-17T12:09:58.713Z,93.91
2022-09-17T12:12:05.139Z,94.42
2022-09-17T12:14:15.440Z,94.33
2022-09-17T12:16:22.358Z,92.23
2022-09-17T12:18:45.923Z,92.63
2022-09-17T12:20:53.111Z,93.01
2022-09-17T12:22:57.655Z,93.96
2022-09-17T12:25:02.314Z,94.74
2022-09-17T12:27:11.026Z,95.34
2022-09-17T12:29:25.229Z,94.10
2022-09-17T12:31:34.810Z,92.45
2022-09-17T12:33:40.612Z,91.43
2022-09-17T12:36:05.298Z,91.57
2022-09-17T12:38:20.830Z,92.49
2022-09-17T12:40:30.454Z,91.87
2022-09-17T12:42:43.220Z,91.30
2022-09-17T12:45:03.668Z,91.29
2022-09-17T12:47:25.861Z,90.30
2022-09-17T12:49:39.761Z,90.19
2022-09-17T12:51:55.914Z,91.28
2022-09-17T12:54:04.546Z,92.07
2022-09-17T12:56:16.859Z,92.22
2022-09-17T12:58:31.822Z,92.38
2022-09-17T13:00:38.830Z,93.24
2022-09-17T13:02:44.865Z,92.51
2022-09-17T13:05:06.357Z,92.91
2022-09-17T13:07:27.835Z,94.05
2022-09-17T13:09:49.058Z,93.73
2022-09-17T13:12:12.093Z,94.78
2022-09-17T13:14:19.840Z,95.60
2022-09-17T13:16:26.488Z,95.70
2022-09-17T13:18:35.547Z,95.97
2022-09-17T13:20:44.766Z,95.52
2022-09-17T13:22:51.224Z,95.36
2022-09-17T13:25:04.673Z,94.99
2022-09-17T13:27:21.006Z,95.69
2022-09-17T13:29:58.602Z,95.09
2022-09-17T13:32:01.584Z,95.14
2022-09-17T13:34:04.866Z,95.36
2022-09-17T13:36:41.093Z,95.23
2022-09-17T13:38:45.488Z,93.38
2022-09-17T13:40:48.501Z,93.49
2022-09-17T13:42:55.332Z,94.93
2022-09-17T13:45:07.726Z,95.51
2022-09-17T13:47:23.881Z,94.74
2022-09-17T13:49:26.900Z,93.28
2022-09-17T13:51:54.914Z,92.55
2022-09-17T13:54:01.905Z,91.51
2022-09-17T13:56:31.840Z,89.86
2022-09-17T13:58:36.014Z,90.10
2022-09-17T14:00:54.244Z,88.48
2022-09-17T14:03:37.208Z,87.82
2022-09-17T14:05:40.240Z,85.43
2022-09-17T14:07:49.025Z,83.61
2022-09-17T14:09:55.665Z,84.96
2022-09-17T14:11:58.717Z,85.09
2022-09-17T14:14:51.315Z,83.07
2022-09-17T14:16:54.270Z,81.78
2022-09-17T14:18:59.987Z,82.70
2022-09-17T14:21:07.174Z,82.16
2022-09-17T14:23:11.068Z,83.75
2022-09-17T14:25:32.685Z,81.87
2022-09-17T14:27:51.896Z,81.14
2022-09-17T14:30:17.046Z,79.12
2022-09-17T14:32:23.023Z,80.26
2022-09-17T14:34:27.336Z,80.27
2022-09-17T14:36:32.048Z,79.43
2022-09-17T14:38:39.681Z,79.69
2022-09-17T14:40:46.363Z,83.00
2022-09-17T14:42:52.744Z,79.87
2022-09-17T14:44:59.953Z,81.94
2022-09-17T14:47:04.499Z,81.27
2022-09-17T14:49:15.899Z,81.54
2022-09-17T14:51:40.440Z,80.11
2022-09-17T14:53:43.518Z,81.34
2022-09-17T14:55:48.496Z,81.54
2022-09-17T14:57:53.658Z,82.48
2022-09-17T14:59:57.210Z,82.14
2022-09-17T15:02:00.612Z,82.20
2022-09-17T15:04:21.369Z,82.34
2022-09-17T15:06:24.427Z,82.27
2022-09-17T15:08:30.245Z,80.50
2022-09-17T15:10:33.354Z,80.86
2022-09-17T15:12:39.775Z,80.52
2022-09-17T15:14:42.709Z,81.56
2022-09-17T15:16:49.428Z,79.61
2022-09-17T15:18:54.611Z,81.02
2022-09-17T15:20:58.616Z,79.18
2022-09-17T15:23:08.982Z,80.56
2022-09-17T15:25:16.306Z,82.89
2022-09-17T15:27:23.516Z,82.12
2022-09-17T15:29:30.004Z,80.38
2022-09-17T15:31:33.056Z,81.72
2022-09-17T15:33:36.289Z,81.86
2022-09-17T15:35:39.602Z,80.40
2022-09-17T15:37:46.646Z,80.48
2022-09-17T15:39:59.277Z,80.53
2022-09-17T15:42:02.411Z,77.94
2022-09-17T15:44:29.822Z,78.80
2022-09-17T15:46:35.071Z,78.32
2022-09-17T15:48:39.613Z,78.59
2022-09-17T15:50:51.993Z,78.81
2022-09-17T15:53:13.754Z,78.35
2022-09-17T15:55:33.551Z,77.71
2022-09-17T15:57:36.640Z,77.73
2022-09-17T15:59:39.922Z,77.49
2022-09-17T16:01:55.260Z,76.71
2022-09-17T16:04:10.008Z,75.27
2022-09-17T16:06:45.615Z,74.53
2022-09-17T16:08:49.773Z,76.99
2022-09-17T16:10:53.061Z,78.13
2022-09-17T16:12:56.114Z,78.43
2022-09-17T16:15:01.403Z,78.12
2022-09-17T16:17:23.620Z,76.89
2022-09-17T16:19:26.754Z,79.99
2022-09-17T16:21:29.928Z,79.59
2022-09-17T16:23:32.952Z,78.38
2022-09-17T16:25:36.038Z,80.48
2022-09-17T16:27:45.515Z,80.60
2022-09-17T16:29:49.127Z,81.42
2022-09-17T16:31:52.868Z,80.19
2022-09-17T16:33:57.208Z,81.33
2022-09-17T16:36:00.650Z,80.88
2022-09-17T16:38:03.781Z,79.56
2022-09-17T16:40:08.029Z,80.18
2022-09-17T16:42:11.050Z,80.36
2022-09-17T16:44:14.032Z,80.62
2022-09-17T16:46:17.271Z,80.37
2022-09-17T16:48:20.275Z,80.88
2022-09-17T16:50:24.737Z,80.74
2022-09-17T16:52:27.695Z,81.72
2022-09-17T16:54:30.718Z,81.17
2022-09-17T16:56:33.780Z,81.75
2022-09-17T16:58:37.093Z,80.90
2022-09-17T17:00:42.950Z,80.73
2022-09-17T17:02:47.291Z,81.63
2022-09-17T17:04:50.504Z,81.24
2022-09-17T17:06:54.846Z,80.67
2022-09-17T17:09:01.013Z,80.87
2022-09-17T17:11:03.957Z,81.08
2022-09-17T17:13:07.294Z,78.46
2022-09-17T17:15:11.083Z,79.30
2022-09-17T17:17:14.108Z,80.26
2022-09-17T17:19:17.745Z,79.72
2022-09-17T17:21:21.250Z,79.94
2022-09-17T17:23:25.612Z,80.11
2022-09-17T17:25:28.645Z,80.54
2022-09-17T17:27:31.620Z,79.40
2022-09-17T17:29:35.360Z,80.11
2022-09-17T17:31:38.427Z,81.07
2022-09-17T17:33:41.427Z,80.04
2022-09-17T17:35:45.516Z,79.16
2022-09-17T17:37:48.699Z,79.20
2022-09-17T17:39:53.838Z,80.41
2022-09-17T17:41:57.001Z,79.64
2022-09-17T17:43:59.963Z,79.55
2022-09-17T17:46:03.260Z,79.50
2022-09-17T17:48:06.517Z,80.27
2022-09-17T17:50:10.585Z,80.52
2022-09-17T17:52:13.538Z,81.23
2022-09-17T17:54:16.694Z,81.22
2022-09-17T17:56:21.074Z,82.05
2022-09-17T17:58:24.317Z,83.07
2022-09-17T18:00:27.710Z,83.74
2022-09-17T18:02:31.077Z,85.36
2022-09-17T18:04:34.380Z,85.85
2022-09-17T18:06:37.644Z,86.75
2022-09-17T18:08:42.105Z,87.58
2022-09-17T18:10:52.565Z,88.19
2022-09-17T18:12:56.945Z,88.50
2022-09-17T18:15:00.110Z,88.92
2022-09-17T18:17:03.098Z,89.34
2022-09-17T18:19:06.694Z,90.68
2022-09-17T18:21:11.686Z,90.53
2022-09-17T18:23:14.789Z,90.60
2022-09-17T18:25:18.042Z,91.25
2022-09-17T18:27:21.044Z,91.84
2022-09-17T18:29:25.348Z,92.08
2022-09-17T18:31:30.204Z,92.24
2022-09-17T18:33:33.830Z,92.16
2022-09-17T18:35:37.472Z,92.81
2022-09-17T18:37:40.482Z,92.96
2022-09-17T18:39:59.513Z,93.16
2022-09-17T18:42:03.175Z,93.95
2022-09-17T18:44:06.214Z,94.50
2022-09-17T18:46:10.907Z,93.90
2022-09-17T18:48:13.967Z,94.30
2022-09-17T18:50:17.886Z,94.58
2022-09-17T18:52:21.070Z,94.12
2022-09-17T18:54:24.152Z,95.24
2022-09-17T18:56:28.983Z,95.06
2022-09-17T18:58:32.024Z,94.63
2022-09-17T19:00:35.029Z,93.56
2022-09-17T19:02:39.667Z,94.28
2022-09-17T19:04:42.997Z,94.68
2022-09-17T19:06:46.015Z,95.10
2022-09-17T19:08:49.994Z,95.53
2022-09-17T19:10:53.393Z,95.76
2022-09-17T19:12:56.419Z,95.64
2022-09-17T19:14:59.414Z,95.96
2022-09-17T19:17:02.475Z,96.06
2022-09-17T19:19:07.019Z,95.17
2022-09-17T19:21:12.263Z,96.16
2022-09-17T19:23:15.405Z,96.00
2022-09-17T19:25:19.710Z,96.35
2022-09-17T19:27:22.897Z,97.07
2022-09-17T19:29:25.969Z,97.04
2022-09-17T19:31:29.441Z,96.13
2022-09-17T19:33:32.611Z,94.89
2022-09-17T19:35:36.937Z,93.83
2022-09-17T19:37:39.944Z,93.45
2022-09-17T19:39:42.903Z,93.90
2022-09-17T19:41:45.979Z,93.71
2022-09-17T19:43:51.566Z,94.29
2022-09-17T19:46:01.491Z,93.76
2022-09-17T19:48:04.706Z,93.12
2022-09-17T19:50:08.019Z,94.43
2022-09-17T19:52:12.414Z,94.54
2022-09-17T19:54:15.513Z,95.08
2022-09-17T19:56:20.188Z,95.37
2022-09-17T19:58:23.173Z,96.09
2022-09-17T20:00:26.413Z,96.00
2022-09-17T20:02:29.510Z,96.69
2022-09-17T20:04:32.604Z,96.62
2022-09-17T20:06:36.105Z,96.59
2022-09-17T20:08:47.034Z,96.96
2022-09-17T20:10:50.989Z,96.87
2022-09-17T20:12:53.992Z,96.42
2022-09-17T20:14:57.011Z,96.77
2022-09-17T20:17:00.040Z,95.81
2022-09-17T20:19:03.318Z,95.60
2022-09-17T20:21:10.189Z,96.35
2022-09-17T20:23:13.273Z,95.93
2022-09-17T20:25:17.727Z,95.35
2022-09-17T20:27:20.752Z,94.85
2022-09-17T20:29:23.790Z,94.80
2022-09-17T20:31:28.382Z,94.33
2022-09-17T20:33:31.517Z,93.67
2022-09-17T20:35:36.241Z,94.14
2022-09-17T20:40:02.654Z,93.61
2022-09-17T20:42:07.249Z,92.69
2022-09-17T20:44:10.266Z,92.22
2022-09-17T20:46:13.953Z,92.59
2022-09-17T20:48:16.964Z,91.69
2022-09-17T20:50:19.995Z,91.24
2022-09-17T20:52:23.005Z,89.72
2022-09-17T20:54:26.002Z,91.12
2022-09-17T20:56:31.388Z,92.02
2022-09-17T20:58:39.582Z,92.57
2022-09-17T21:00:42.788Z,92.63
2022-09-17T21:02:50.450Z,91.27
2022-09-17T21:04:54.172Z,91.83
2022-09-17T21:06:57.188Z,92.20
2022-09-17T21:09:00.725Z,90.18
2022-09-17T21:11:05.605Z,90.55
2022-09-17T21:13:08.624Z,90.78
2022-09-17T21:15:13.957Z,92.06
2022-09-17T21:17:16.954Z,91.10
2022-09-17T21:19:21.366Z,91.10
2022-09-17T21:21:25.147Z,92.42
2022-09-17T21:23:29.170Z,90.93
2022-09-17T21:25:32.167Z,91.77
2022-09-17T21:27:35.131Z,91.30
2022-09-17T21:29:38.115Z,89.76
2022-09-17T21:31:42.584Z,90.95
2022-09-17T21:33:46.478Z,91.71
2022-09-17T21:35:50.963Z,90.73
2022-09-17T21:37:53.944Z,90.74
2022-09-17T21:39:57.104Z,92.50
2022-09-17T21:42:00.232Z,92.18
2022-09-17T21:44:03.492Z,92.91
2022-09-17T21:46:08.722Z,92.95
2022-09-17T21:48:13.102Z,92.52
2022-09-17T21:50:16.271Z,91.98
2022-09-17T21:52:19.335Z,93.09
2022-09-17T21:54:22.396Z,92.59
2022-09-17T21:56:25.444Z,93.41
2022-09-17T21:58:28.445Z,92.70
2022-09-17T22:00:31.419Z,92.52
2022-09-17T22:02:35.723Z,92.85
2022-09-17T22:04:40.189Z,92.18
2022-09-17T22:06:43.850Z,91.71
2022-09-17T22:08:47.122Z,93.28
2022-09-17T22:10:50.145Z,93.72
2022-09-17T22:12:53.165Z,93.77
2022-09-17T22:14:56.236Z,94.13
2022-09-17T22:16:59.738Z,93.88
2022-09-17T22:19:03.956Z,94.05
2022-09-17T22:21:14.777Z,94.19
2022-09-17T22:23:17.842Z,92.54
2022-09-17T22:25:20.887Z,94.14
2022-09-17T22:27:23.965Z,94.56
2022-09-17T22:29:30.189Z,93.78
2022-09-17T22:31:33.613Z,93.35
2022-09-17T22:33:37.784Z,94.21
2022-09-17T22:35:40.832Z,93.54
2022-09-17T22:37:45.523Z,94.26
2022-09-17T22:39:48.522Z,93.99
2022-09-17T22:41:51.606Z,93.58
2022-09-17T22:43:55.062Z,95.16
2022-09-17T22:45:58.070Z,94.48
2022-09-17T22:48:01.091Z,94.85
2022-09-17T22:50:04.132Z,95.24
2022-09-17T22:52:07.157Z,94.90
2022-09-17T22:54:13.533Z,94.55
2022-09-17T22:56:18.457Z,94.96
2022-09-17T22:58:24.127Z,95.35
2022-09-17T23:00:27.131Z,94.36
2022-09-17T23:02:30.187Z,95.48
2022-09-17T23:04:33.221Z,94.79
2022-09-17T23:06:38.959Z,95.12
2022-09-17T23:08:42.431Z,95.56
2022-09-17T23:10:46.793Z,95.15
2022-09-17T23:12:49.770Z,95.42
2022-09-17T23:14:52.819Z,95.66
2022-09-17T23:16:56.747Z,94.40
2022-09-17T23:18:59.794Z,95.75
2022-09-17T23:21:07.038Z,94.53
2022-09-17T23:23:10.179Z,94.60
2022-09-17T23:25:13.157Z,95.83
2022-09-17T23:27:17.610Z,94.72
2022-09-17T23:29:20.736Z,94.33
2022-09-17T23:31:24.773Z,94.48
2022-09-17T23:33:27.818Z,94.35
2022-09-17T23:35:30.877Z,94.10
2022-09-17T23:37:34.632Z,94.91
2022-09-17T23:39:37.781Z,94.98
2022-09-17T23:41:43.157Z,95.55
2022-09-17T23:43:48.985Z,94.73
2022-09-17T23:45:57.337Z,94.23
2022-09-17T23:48:00.537Z,93.84
2022-09-17T23:50:03.749Z,95.00
2022-09-17T23:52:07.325Z,93.77
2022-09-17T23:54:10.301Z,94.18
2022-09-17T23:56:14.923Z,94.12
2022-09-17T23:58:17.998Z,94.01
